sensor_id;sensor_type;location;lat;lon;timestamp;P1;durP1;ratioP1;P2;durP2;ratioP2
789;SDS011;378;48.844;9.156;2022-07-11T00:02:05;4.57;;;0.70;;
789;SDS011;378;48.844;9.156;2022-07-11T00:04:33;4.05;;;0.93;;
789;SDS011;378;48.844;9.156;2022-07-11T00:07:01;3.00;;;1.08;;
789;SDS011;378;48.844;9.156;2022-07-11T00:09:29;4.85;;;0.88;;
789;SDS011;378;48.844;9.156;2022-07-11T00:11:56;4.50;;;1.00;;
789;SDS011;378;48.844;9.156;2022-07-11T00:14:25;2.70;;;1.00;;
789;SDS011;378;48.844;9.156;2022-07-11T00:16:53;1.75;;;0.73;;
789;SDS011;378;48.844;9.156;2022-07-11T00:19:21;2.25;;;0.80;;
789;SDS011;378;48.844;9.156;2022-07-11T00:21:48;1.23;;;0.98;;
789;SDS011;378;48.844;9.156;2022-07-11T00:24:17;1.92;;;1.10;;
789;SDS011;378;48.844;9.156;2022-07-11T00:26:45;2.17;;;0.95;;
789;SDS011;378;48.844;9.156;2022-07-11T00:29:12;1.58;;;1.30;;
789;SDS011;378;48.844;9.156;2022-07-11T00:31:41;1.67;;;0.98;;
789;SDS011;378;48.844;9.156;2022-07-11T00:34:09;2.47;;;1.10;;
789;SDS011;378;48.844;9.156;2022-07-11T00:36:36;1.10;;;1.00;;
789;SDS011;378;48.844;9.156;2022-07-11T00:39:04;2.10;;;1.13;;
789;SDS011;378;48.844;9.156;2022-07-11T00:41:31;1.45;;;1.13;;
789;SDS011;378;48.844;9.156;2022-07-11T00:43:59;2.78;;;1.20;;
789;SDS011;378;48.844;9.156;2022-07-11T00:46:28;6.60;;;1.65;;
789;SDS011;378;48.844;9.156;2022-07-11T00:48:57;2.47;;;1.38;;
789;SDS011;378;48.844;9.156;2022-07-11T00:51:25;1.92;;;1.50;;
789;SDS011;378;48.844;9.156;2022-07-11T00:53:54;2.28;;;1.38;;
789;SDS011;378;48.844;9.156;2022-07-11T00:56:23;5.55;;;1.45;;
789;SDS011;378;48.844;9.156;2022-07-11T00:58:52;2.03;;;1.25;;
789;SDS011;378;48.844;9.156;2022-07-11T01:01:20;4.80;;;1.50;;
789;SDS011;378;48.844;9.156;2022-07-11T01:03:47;2.20;;;1.27;;
789;SDS011;378;48.844;9.156;2022-07-11T01:06:16;1.63;;;1.52;;
789;SDS011;378;48.844;9.156;2022-07-11T01:08:43;2.17;;;1.52;;
789;SDS011;378;48.844;9.156;2022-07-11T01:11:11;1.58;;;1.45;;
789;SDS011;378;48.844;9.156;2022-07-11T01:13:40;3.83;;;1.20;;
789;SDS011;378;48.844;9.156;2022-07-11T01:16:12;2.83;;;1.50;;
789;SDS011;378;48.844;9.156;2022-07-11T01:18:41;3.45;;;1.80;;
789;SDS011;378;48.844;9.156;2022-07-11T01:21:22;2.97;;;1.50;;
789;SDS011;378;48.844;9.156;2022-07-11T01:23:51;3.58;;;1.38;;
789;SDS011;378;48.844;9.156;2022-07-11T01:26:20;2.22;;;1.55;;
789;SDS011;378;48.844;9.156;2022-07-11T01:28:47;3.15;;;1.50;;
789;SDS011;378;48.844;9.156;2022-07-11T01:31:15;2.83;;;1.50;;
789;SDS011;378;48.844;9.156;2022-07-11T01:33:42;3.25;;;1.52;;
789;SDS011;378;48.844;9.156;2022-07-11T01:36:09;2.38;;;1.60;;
789;SDS011;378;48.844;9.156;2022-07-11T01:38:37;1.83;;;1.50;;
789;SDS011;378;48.844;9.156;2022-07-11T01:41:05;3.88;;;1.80;;
789;SDS011;378;48.844;9.156;2022-07-11T01:43:33;3.60;;;1.45;;
789;SDS011;378;48.844;9.156;2022-07-11T01:46:00;3.28;;;1.80;;
789;SDS011;378;48.844;9.156;2022-07-11T01:48:27;3.50;;;1.60;;
789;SDS011;378;48.844;9.156;2022-07-11T01:50:54;3.83;;;1.58;;
789;SDS011;378;48.844;9.156;2022-07-11T01:53:22;3.70;;;1.70;;
789;SDS011;378;48.844;9.156;2022-07-11T01:55:49;3.22;;;2.00;;
789;SDS011;378;48.844;9.156;2022-07-11T01:58:18;2.15;;;1.50;;
789;SDS011;378;48.844;9.156;2022-07-11T02:00:45;4.60;;;1.90;;
789;SDS011;378;48.844;9.156;2022-07-11T02:03:13;2.53;;;1.58;;
789;SDS011;378;48.844;9.156;2022-07-11T02:05:40;2.97;;;1.90;;
789;SDS011;378;48.844;9.156;2022-07-11T02:08:07;2.05;;;1.65;;
789;SDS011;378;48.844;9.156;2022-07-11T02:10:41;2.53;;;1.90;;
789;SDS011;378;48.844;9.156;2022-07-11T02:13:10;2.92;;;1.88;;
789;SDS011;378;48.844;9.156;2022-07-11T02:15:39;2.35;;;1.55;;
789;SDS011;378;48.844;9.156;2022-07-11T02:18:07;3.58;;;1.48;;
789;SDS011;378;48.844;9.156;2022-07-11T02:20:35;3.03;;;1.85;;
789;SDS011;378;48.844;9.156;2022-07-11T02:23:03;4.13;;;1.83;;
789;SDS011;378;48.844;9.156;2022-07-11T02:25:30;2.55;;;1.95;;
789;SDS011;378;48.844;9.156;2022-07-11T02:28:00;3.25;;;1.73;;
789;SDS011;378;48.844;9.156;2022-07-11T02:30:27;3.20;;;1.88;;
789;SDS011;378;48.844;9.156;2022-07-11T02:32:56;2.58;;;1.70;;
789;SDS011;378;48.844;9.156;2022-07-11T02:35:23;3.92;;;1.60;;
789;SDS011;378;48.844;9.156;2022-07-11T02:37:50;4.57;;;1.77;;
789;SDS011;378;48.844;9.156;2022-07-11T02:40:17;3.42;;;1.83;;
789;SDS011;378;48.844;9.156;2022-07-11T02:42:44;3.13;;;1.75;;
789;SDS011;378;48.844;9.156;2022-07-11T02:45:11;4.45;;;1.70;;
789;SDS011;378;48.844;9.156;2022-07-11T02:47:39;2.55;;;1.80;;
789;SDS011;378;48.844;9.156;2022-07-11T02:50:10;3.17;;;1.88;;
789;SDS011;378;48.844;9.156;2022-07-11T02:52:38;3.70;;;1.90;;
789;SDS011;378;48.844;9.156;2022-07-11T02:55:06;4.18;;;2.17;;
789;SDS011;378;48.844;9.156;2022-07-11T02:57:34;4.65;;;2.17;;
789;SDS011;378;48.844;9.156;2022-07-11T03:00:03;5.18;;;1.95;;
789;SDS011;378;48.844;9.156;2022-07-11T03:02:32;2.90;;;1.98;;
789;SDS011;378;48.844;9.156;2022-07-11T03:05:00;5.75;;;2.10;;
789;SDS011;378;48.844;9.156;2022-07-11T03:07:28;2.95;;;2.22;;
789;SDS011;378;48.844;9.156;2022-07-11T03:09:55;3.22;;;2.20;;
789;SDS011;378;48.844;9.156;2022-07-11T03:12:23;2.95;;;2.20;;
789;SDS011;378;48.844;9.156;2022-07-11T03:14:50;3.53;;;2.20;;
789;SDS011;378;48.844;9.156;2022-07-11T03:17:17;2.45;;;2.20;;
789;SDS011;378;48.844;9.156;2022-07-11T03:19:45;4.85;;;1.95;;
789;SDS011;378;48.844;9.156;2022-07-11T03:22:13;2.80;;;2.30;;
789;SDS011;378;48.844;9.156;2022-07-11T03:24:42;2.55;;;2.10;;
789;SDS011;378;48.844;9.156;2022-07-11T03:27:09;3.63;;;2.33;;
789;SDS011;378;48.844;9.156;2022-07-11T03:29:37;4.47;;;2.35;;
789;SDS011;378;48.844;9.156;2022-07-11T03:32:04;2.70;;;2.38;;
789;SDS011;378;48.844;9.156;2022-07-11T03:34:31;2.70;;;2.22;;
789;SDS011;378;48.844;9.156;2022-07-11T03:36:59;3.88;;;2.50;;
789;SDS011;378;48.844;9.156;2022-07-11T03:39:26;3.05;;;2.55;;
789;SDS011;378;48.844;9.156;2022-07-11T03:41:54;5.72;;;3.15;;
789;SDS011;378;48.844;9.156;2022-07-11T03:44:22;4.30;;;2.63;;
789;SDS011;378;48.844;9.156;2022-07-11T03:46:49;5.35;;;2.67;;
789;SDS011;378;48.844;9.156;2022-07-11T03:49:16;2.70;;;2.42;;
789;SDS011;378;48.844;9.156;2022-07-11T03:51:43;3.75;;;2.78;;
789;SDS011;378;48.844;9.156;2022-07-11T03:54:10;4.70;;;2.78;;
789;SDS011;378;48.844;9.156;2022-07-11T03:56:37;3.28;;;2.42;;
789;SDS011;378;48.844;9.156;2022-07-11T03:59:05;3.90;;;2.42;;
789;SDS011;378;48.844;9.156;2022-07-11T04:01:32;4.15;;;2.42;;
789;SDS011;378;48.844;9.156;2022-07-11T04:03:59;4.15;;;2.78;;
789;SDS011;378;48.844;9.156;2022-07-11T04:06:27;4.40;;;2.45;;
789;SDS011;378;48.844;9.156;2022-07-11T04:08:54;4.95;;;2.53;;
789;SDS011;378;48.844;9.156;2022-07-11T04:11:21;3.30;;;2.40;;
789;SDS011;378;48.844;9.156;2022-07-11T04:13:48;3.65;;;2.53;;
789;SDS011;378;48.844;9.156;2022-07-11T04:16:16;4.32;;;2.63;;
789;SDS011;378;48.844;9.156;2022-07-11T04:18:44;5.65;;;2.88;;
789;SDS011;378;48.844;9.156;2022-07-11T04:21:11;4.00;;;2.92;;
789;SDS011;378;48.844;9.156;2022-07-11T04:23:38;7.22;;;2.78;;
789;SDS011;378;48.844;9.156;2022-07-11T04:26:05;4.68;;;2.60;;
789;SDS011;378;48.844;9.156;2022-07-11T04:28:32;4.85;;;2.70;;
789;SDS011;378;48.844;9.156;2022-07-11T04:30:59;4.28;;;3.08;;
789;SDS011;378;48.844;9.156;2022-07-11T04:33:28;3.13;;;2.70;;
789;SDS011;378;48.844;9.156;2022-07-11T04:35:55;5.68;;;2.63;;
789;SDS011;378;48.844;9.156;2022-07-11T04:38:22;4.40;;;2.78;;
789;SDS011;378;48.844;9.156;2022-07-11T04:40:49;3.63;;;2.63;;
789;SDS011;378;48.844;9.156;2022-07-11T04:43:16;4.35;;;3.15;;
789;SDS011;378;48.844;9.156;2022-07-11T04:45:44;4.13;;;2.80;;
789;SDS011;378;48.844;9.156;2022-07-11T04:48:11;5.38;;;3.08;;
789;SDS011;378;48.844;9.156;2022-07-11T04:50:41;6.50;;;3.03;;
789;SDS011;378;48.844;9.156;2022-07-11T04:53:09;3.38;;;2.50;;
789;SDS011;378;48.844;9.156;2022-07-11T04:55:37;6.10;;;3.05;;
789;SDS011;378;48.844;9.156;2022-07-11T04:58:06;5.03;;;2.97;;
789;SDS011;378;48.844;9.156;2022-07-11T05:00:33;5.00;;;2.90;;
789;SDS011;378;48.844;9.156;2022-07-11T05:03:00;5.15;;;3.03;;
789;SDS011;378;48.844;9.156;2022-07-11T05:05:27;4.80;;;2.78;;
789;SDS011;378;48.844;9.156;2022-07-11T05:07:56;4.55;;;2.75;;
789;SDS011;378;48.844;9.156;2022-07-11T05:10:23;3.45;;;2.47;;
789;SDS011;378;48.844;9.156;2022-07-11T05:12:50;4.40;;;2.30;;
789;SDS011;378;48.844;9.156;2022-07-11T05:15:17;4.68;;;2.58;;
789;SDS011;378;48.844;9.156;2022-07-11T05:17:45;2.47;;;2.22;;
789;SDS011;378;48.844;9.156;2022-07-11T05:20:12;3.60;;;2.70;;
789;SDS011;378;48.844;9.156;2022-07-11T05:22:39;5.03;;;3.05;;
789;SDS011;378;48.844;9.156;2022-07-11T05:25:08;2.38;;;2.17;;
789;SDS011;378;48.844;9.156;2022-07-11T05:27:35;6.78;;;2.80;;
789;SDS011;378;48.844;9.156;2022-07-11T05:30:02;5.47;;;2.40;;
789;SDS011;378;48.844;9.156;2022-07-11T05:32:30;3.45;;;2.60;;
789;SDS011;378;48.844;9.156;2022-07-11T05:34:57;4.07;;;2.38;;
789;SDS011;378;48.844;9.156;2022-07-11T05:37:25;3.50;;;2.30;;
789;SDS011;378;48.844;9.156;2022-07-11T05:39:52;3.33;;;2.55;;
789;SDS011;378;48.844;9.156;2022-07-11T05:42:21;4.97;;;2.72;;
789;SDS011;378;48.844;9.156;2022-07-11T05:44:48;3.53;;;2.50;;
789;SDS011;378;48.844;9.156;2022-07-11T05:47:16;2.90;;;2.45;;
789;SDS011;378;48.844;9.156;2022-07-11T05:49:43;3.97;;;2.30;;
789;SDS011;378;48.844;9.156;2022-07-11T05:52:10;5.22;;;2.75;;
789;SDS011;378;48.844;9.156;2022-07-11T05:54:37;3.75;;;2.38;;
789;SDS011;378;48.844;9.156;2022-07-11T05:57:05;5.78;;;2.50;;
789;SDS011;378;48.844;9.156;2022-07-11T05:59:33;4.03;;;2.50;;
789;SDS011;378;48.844;9.156;2022-07-11T06:02:02;4.32;;;2.25;;
789;SDS011;378;48.844;9.156;2022-07-11T06:04:32;4.15;;;2.35;;
789;SDS011;378;48.844;9.156;2022-07-11T06:06:59;4.63;;;2.50;;
789;SDS011;378;48.844;9.156;2022-07-11T06:09:26;5.07;;;2.60;;
789;SDS011;378;48.844;9.156;2022-07-11T06:11:52;2.88;;;2.00;;
789;SDS011;378;48.844;9.156;2022-07-11T06:14:19;3.53;;;2.60;;
789;SDS011;378;48.844;9.156;2022-07-11T06:16:48;3.90;;;2.60;;
789;SDS011;378;48.844;9.156;2022-07-11T06:19:16;5.10;;;2.72;;
789;SDS011;378;48.844;9.156;2022-07-11T06:21:43;2.50;;;2.15;;
789;SDS011;378;48.844;9.156;2022-07-11T06:24:10;3.85;;;2.13;;
789;SDS011;378;48.844;9.156;2022-07-11T06:26:37;4.13;;;2.30;;
789;SDS011;378;48.844;9.156;2022-07-11T06:29:04;4.45;;;2.40;;
789;SDS011;378;48.844;9.156;2022-07-11T06:31:31;4.40;;;2.45;;
789;SDS011;378;48.844;9.156;2022-07-11T06:34:00;3.72;;;2.00;;
789;SDS011;378;48.844;9.156;2022-07-11T06:36:27;2.60;;;1.92;;
789;SDS011;378;48.844;9.156;2022-07-11T06:38:54;2.13;;;1.90;;
789;SDS011;378;48.844;9.156;2022-07-11T06:41:21;2.63;;;1.98;;
789;SDS011;378;48.844;9.156;2022-07-11T06:43:48;4.88;;;1.73;;
789;SDS011;378;48.844;9.156;2022-07-11T06:46:16;5.03;;;2.40;;
789;SDS011;378;48.844;9.156;2022-07-11T06:48:43;4.20;;;2.00;;
789;SDS011;378;48.844;9.156;2022-07-11T06:51:12;2.65;;;1.58;;
789;SDS011;378;48.844;9.156;2022-07-11T06:53:39;2.65;;;1.80;;
789;SDS011;378;48.844;9.156;2022-07-11T06:56:06;2.70;;;2.00;;
789;SDS011;378;48.844;9.156;2022-07-11T06:58:33;1.88;;;1.40;;
789;SDS011;378;48.844;9.156;2022-07-11T07:01:00;3.15;;;1.90;;
789;SDS011;378;48.844;9.156;2022-07-11T07:03:29;2.53;;;1.85;;
789;SDS011;378;48.844;9.156;2022-07-11T07:05:57;2.00;;;1.80;;
789;SDS011;378;48.844;9.156;2022-07-11T07:08:27;2.00;;;1.42;;
789;SDS011;378;48.844;9.156;2022-07-11T07:10:55;2.70;;;1.70;;
789;SDS011;378;48.844;9.156;2022-07-11T07:13:22;2.42;;;1.50;;
789;SDS011;378;48.844;9.156;2022-07-11T07:15:50;3.70;;;1.50;;
789;SDS011;378;48.844;9.156;2022-07-11T07:18:18;4.22;;;1.52;;
789;SDS011;378;48.844;9.156;2022-07-11T07:20:45;2.78;;;1.30;;
789;SDS011;378;48.844;9.156;2022-07-11T07:23:13;2.55;;;1.50;;
789;SDS011;378;48.844;9.156;2022-07-11T07:25:43;2.33;;;1.60;;
789;SDS011;378;48.844;9.156;2022-07-11T07:28:10;5.15;;;1.73;;
789;SDS011;378;48.844;9.156;2022-07-11T07:30:37;2.30;;;1.55;;
789;SDS011;378;48.844;9.156;2022-07-11T07:33:04;4.53;;;2.17;;
789;SDS011;378;48.844;9.156;2022-07-11T07:35:32;3.15;;;1.88;;
789;SDS011;378;48.844;9.156;2022-07-11T07:37:59;4.20;;;1.55;;
789;SDS011;378;48.844;9.156;2022-07-11T07:40:26;2.08;;;1.40;;
789;SDS011;378;48.844;9.156;2022-07-11T07:42:54;2.63;;;1.77;;
789;SDS011;378;48.844;9.156;2022-07-11T07:45:22;2.10;;;1.60;;
789;SDS011;378;48.844;9.156;2022-07-11T07:47:49;4.22;;;1.50;;
789;SDS011;378;48.844;9.156;2022-07-11T07:50:16;3.22;;;1.50;;
789;SDS011;378;48.844;9.156;2022-07-11T07:52:43;1.67;;;1.38;;
789;SDS011;378;48.844;9.156;2022-07-11T07:55:10;2.83;;;1.35;;
789;SDS011;378;48.844;9.156;2022-07-11T07:57:37;2.30;;;1.23;;
789;SDS011;378;48.844;9.156;2022-07-11T08:00:06;1.80;;;0.95;;
789;SDS011;378;48.844;9.156;2022-07-11T08:02:52;2.08;;;0.98;;
789;SDS011;378;48.844;9.156;2022-07-11T08:05:19;1.70;;;0.93;;
789;SDS011;378;48.844;9.156;2022-07-11T08:07:46;3.25;;;1.13;;
789;SDS011;378;48.844;9.156;2022-07-11T08:10:13;1.75;;;0.75;;
789;SDS011;378;48.844;9.156;2022-07-11T08:12:40;1.75;;;0.88;;
789;SDS011;378;48.844;9.156;2022-07-11T08:15:09;3.35;;;0.90;;
789;SDS011;378;48.844;9.156;2022-07-11T08:17:37;1.35;;;0.70;;
789;SDS011;378;48.844;9.156;2022-07-11T08:20:04;1.42;;;0.80;;
789;SDS011;378;48.844;9.156;2022-07-11T08:22:32;6.07;;;0.90;;
789;SDS011;378;48.844;9.156;2022-07-11T08:24:59;2.30;;;0.70;;
789;SDS011;378;48.844;9.156;2022-07-11T08:27:26;1.27;;;0.75;;
789;SDS011;378;48.844;9.156;2022-07-11T08:29:53;4.15;;;0.95;;
789;SDS011;378;48.844;9.156;2022-07-11T08:32:22;1.13;;;0.75;;
789;SDS011;378;48.844;9.156;2022-07-11T08:34:49;0.70;;;0.68;;
789;SDS011;378;48.844;9.156;2022-07-11T08:37:16;2.47;;;0.70;;
789;SDS011;378;48.844;9.156;2022-07-11T08:39:43;0.95;;;0.70;;
789;SDS011;378;48.844;9.156;2022-07-11T08:42:10;2.28;;;0.90;;
789;SDS011;378;48.844;9.156;2022-07-11T08:44:38;2.92;;;0.88;;
789;SDS011;378;48.844;9.156;2022-07-11T08:47:06;1.67;;;0.85;;
789;SDS011;378;48.844;9.156;2022-07-11T08:49:35;2.22;;;0.80;;
789;SDS011;378;48.844;9.156;2022-07-11T08:52:03;1.45;;;0.70;;
789;SDS011;378;48.844;9.156;2022-07-11T08:54:31;2.60;;;0.70;;
789;SDS011;378;48.844;9.156;2022-07-11T08:56:58;1.10;;;0.70;;
789;SDS011;378;48.844;9.156;2022-07-11T08:59:28;2.63;;;0.73;;
789;SDS011;378;48.844;9.156;2022-07-11T09:02:00;1.42;;;0.65;;
789;SDS011;378;48.844;9.156;2022-07-11T09:04:29;1.27;;;0.60;;
789;SDS011;378;48.844;9.156;2022-07-11T09:06:58;0.90;;;0.65;;
789;SDS011;378;48.844;9.156;2022-07-11T09:09:26;0.40;;;0.40;;
789;SDS011;378;48.844;9.156;2022-07-11T09:11:55;0.68;;;0.50;;
789;SDS011;378;48.844;9.156;2022-07-11T09:14:24;1.65;;;0.70;;
789;SDS011;378;48.844;9.156;2022-07-11T09:16:52;1.00;;;0.50;;
789;SDS011;378;48.844;9.156;2022-07-11T09:19:20;0.43;;;0.38;;
789;SDS011;378;48.844;9.156;2022-07-11T09:22:00;0.28;;;0.20;;
789;SDS011;378;48.844;9.156;2022-07-11T09:24:53;0.30;;;0.30;;
789;SDS011;378;48.844;9.156;2022-07-11T09:27:42;0.52;;;0.40;;
789;SDS011;378;48.844;9.156;2022-07-11T09:30:21;0.85;;;0.40;;
789;SDS011;378;48.844;9.156;2022-07-11T09:32:53;0.60;;;0.40;;
789;SDS011;378;48.844;9.156;2022-07-11T09:35:22;0.47;;;0.45;;
789;SDS011;378;48.844;9.156;2022-07-11T09:37:52;0.77;;;0.50;;
789;SDS011;378;48.844;9.156;2022-07-11T09:40:19;1.02;;;0.57;;
789;SDS011;378;48.844;9.156;2022-07-11T09:42:51;0.80;;;0.50;;
789;SDS011;378;48.844;9.156;2022-07-11T09:45:20;0.95;;;0.50;;
789;SDS011;378;48.844;9.156;2022-07-11T09:47:50;0.68;;;0.45;;
789;SDS011;378;48.844;9.156;2022-07-11T09:50:18;1.25;;;0.80;;
789;SDS011;378;48.844;9.156;2022-07-11T09:55:31;4.03;;;0.77;;
789;SDS011;378;48.844;9.156;2022-07-11T09:57:59;1.60;;;0.75;;
789;SDS011;378;48.844;9.156;2022-07-11T10:00:30;0.50;;;0.50;;
789;SDS011;378;48.844;9.156;2022-07-11T10:02:58;1.58;;;0.80;;
789;SDS011;378;48.844;9.156;2022-07-11T10:05:26;1.70;;;0.70;;
789;SDS011;378;48.844;9.156;2022-07-11T10:07:54;1.05;;;0.70;;
789;SDS011;378;48.844;9.156;2022-07-11T10:10:24;0.77;;;0.70;;
789;SDS011;378;48.844;9.156;2022-07-11T10:12:52;0.80;;;0.80;;
789;SDS011;378;48.844;9.156;2022-07-11T10:15:20;1.80;;;0.90;;
789;SDS011;378;48.844;9.156;2022-07-11T10:17:51;1.00;;;0.65;;
789;SDS011;378;48.844;9.156;2022-07-11T10:20:27;0.70;;;0.60;;
789;SDS011;378;48.844;9.156;2022-07-11T10:23:00;0.70;;;0.65;;
789;SDS011;378;48.844;9.156;2022-07-11T10:25:37;1.13;;;0.68;;
789;SDS011;378;48.844;9.156;2022-07-11T10:28:16;0.70;;;0.60;;
789;SDS011;378;48.844;9.156;2022-07-11T10:30:52;0.52;;;0.50;;
789;SDS011;378;48.844;9.156;2022-07-11T10:33:21;1.73;;;1.20;;
789;SDS011;378;48.844;9.156;2022-07-11T10:35:49;0.40;;;0.40;;
789;SDS011;378;48.844;9.156;2022-07-11T10:38:18;1.13;;;0.60;;
789;SDS011;378;48.844;9.156;2022-07-11T10:40:48;1.55;;;0.77;;
789;SDS011;378;48.844;9.156;2022-07-11T10:43:31;2.35;;;0.68;;
789;SDS011;378;48.844;9.156;2022-07-11T10:46:02;0.73;;;0.70;;
789;SDS011;378;48.844;9.156;2022-07-11T10:48:31;0.68;;;0.50;;
789;SDS011;378;48.844;9.156;2022-07-11T10:51:14;0.98;;;0.60;;
789;SDS011;378;48.844;9.156;2022-07-11T10:53:50;1.20;;;0.73;;
789;SDS011;378;48.844;9.156;2022-07-11T10:59:15;2.85;;;0.60;;
789;SDS011;378;48.844;9.156;2022-07-11T11:02:02;2.70;;;0.80;;
789;SDS011;378;48.844;9.156;2022-07-11T11:04:43;0.70;;;0.70;;
789;SDS011;378;48.844;9.156;2022-07-11T11:07:27;1.20;;;0.80;;
789;SDS011;378;48.844;9.156;2022-07-11T11:09:59;0.85;;;0.73;;
789;SDS011;378;48.844;9.156;2022-07-11T11:15:33;1.15;;;0.63;;
789;SDS011;378;48.844;9.156;2022-07-11T11:21:19;0.70;;;0.70;;
789;SDS011;378;48.844;9.156;2022-07-11T11:24:01;1.05;;;0.65;;
789;SDS011;378;48.844;9.156;2022-07-11T11:29:25;1.65;;;0.70;;
789;SDS011;378;48.844;9.156;2022-07-11T11:31:56;3.50;;;0.70;;
789;SDS011;378;48.844;9.156;2022-07-11T11:34:25;1.77;;;0.77;;
789;SDS011;378;48.844;9.156;2022-07-11T11:36:57;0.90;;;0.70;;
789;SDS011;378;48.844;9.156;2022-07-11T11:39:28;1.15;;;0.80;;
789;SDS011;378;48.844;9.156;2022-07-11T11:42:06;1.05;;;0.60;;
789;SDS011;378;48.844;9.156;2022-07-11T11:44:48;1.20;;;0.68;;
789;SDS011;378;48.844;9.156;2022-07-11T11:47:21;3.28;;;0.65;;
789;SDS011;378;48.844;9.156;2022-07-11T11:49:49;2.75;;;0.60;;
789;SDS011;378;48.844;9.156;2022-07-11T11:52:17;1.00;;;0.70;;
789;SDS011;378;48.844;9.156;2022-07-11T11:54:50;1.92;;;0.80;;
789;SDS011;378;48.844;9.156;2022-07-11T11:57:20;0.90;;;0.80;;
789;SDS011;378;48.844;9.156;2022-07-11T11:59:48;6.55;;;0.73;;
789;SDS011;378;48.844;9.156;2022-07-11T12:02:24;0.90;;;0.65;;
789;SDS011;378;48.844;9.156;2022-07-11T12:04:53;1.55;;;0.77;;
789;SDS011;378;48.844;9.156;2022-07-11T12:07:21;2.70;;;0.93;;
789;SDS011;378;48.844;9.156;2022-07-11T12:09:51;1.98;;;0.70;;
789;SDS011;378;48.844;9.156;2022-07-11T12:12:21;3.22;;;0.80;;
789;SDS011;378;48.844;9.156;2022-07-11T12:15:07;1.42;;;0.80;;
789;SDS011;378;48.844;9.156;2022-07-11T12:17:55;1.35;;;0.93;;
789;SDS011;378;48.844;9.156;2022-07-11T12:20:35;2.05;;;0.85;;
789;SDS011;378;48.844;9.156;2022-07-11T12:23:07;1.60;;;1.00;;
789;SDS011;378;48.844;9.156;2022-07-11T12:25:35;2.10;;;1.00;;
789;SDS011;378;48.844;9.156;2022-07-11T12:28:03;2.03;;;1.13;;
789;SDS011;378;48.844;9.156;2022-07-11T12:30:33;2.90;;;1.13;;
789;SDS011;378;48.844;9.156;2022-07-11T12:33:08;2.42;;;1.13;;
789;SDS011;378;48.844;9.156;2022-07-11T12:35:36;3.80;;;0.80;;
789;SDS011;378;48.844;9.156;2022-07-11T12:38:19;1.38;;;0.90;;
789;SDS011;378;48.844;9.156;2022-07-11T12:40:57;1.17;;;0.90;;
789;SDS011;378;48.844;9.156;2022-07-11T12:43:40;1.95;;;1.00;;
789;SDS011;378;48.844;9.156;2022-07-11T12:46:28;2.17;;;0.95;;
789;SDS011;378;48.844;9.156;2022-07-11T12:48:57;1.85;;;1.10;;
789;SDS011;378;48.844;9.156;2022-07-11T12:51:27;1.17;;;0.95;;
789;SDS011;378;48.844;9.156;2022-07-11T12:53:59;3.88;;;0.90;;
789;SDS011;378;48.844;9.156;2022-07-11T12:56:31;1.60;;;0.90;;
789;SDS011;378;48.844;9.156;2022-07-11T12:58:58;1.25;;;1.00;;
789;SDS011;378;48.844;9.156;2022-07-11T13:01:26;2.83;;;1.05;;
789;SDS011;378;48.844;9.156;2022-07-11T13:03:54;3.35;;;1.00;;
789;SDS011;378;48.844;9.156;2022-07-11T13:06:22;2.28;;;1.00;;
789;SDS011;378;48.844;9.156;2022-07-11T13:09:04;1.17;;;0.90;;
789;SDS011;378;48.844;9.156;2022-07-11T13:11:31;2.13;;;1.27;;
789;SDS011;378;48.844;9.156;2022-07-11T13:13:58;3.03;;;1.20;;
789;SDS011;378;48.844;9.156;2022-07-11T13:16:25;4.45;;;1.23;;
789;SDS011;378;48.844;9.156;2022-07-11T13:18:53;3.90;;;1.30;;
789;SDS011;378;48.844;9.156;2022-07-11T13:21:20;1.67;;;1.30;;
789;SDS011;378;48.844;9.156;2022-07-11T13:23:48;1.60;;;1.20;;
789;SDS011;378;48.844;9.156;2022-07-11T13:26:15;8.75;;;1.30;;
789;SDS011;378;48.844;9.156;2022-07-11T13:28:42;2.60;;;1.20;;
789;SDS011;378;48.844;9.156;2022-07-11T13:31:10;3.40;;;1.20;;
789;SDS011;378;48.844;9.156;2022-07-11T13:33:37;5.57;;;1.30;;
789;SDS011;378;48.844;9.156;2022-07-11T13:36:06;1.13;;;1.00;;
789;SDS011;378;48.844;9.156;2022-07-11T13:38:33;2.17;;;1.27;;
789;SDS011;378;48.844;9.156;2022-07-11T13:41:02;3.95;;;1.30;;
789;SDS011;378;48.844;9.156;2022-07-11T13:43:30;2.70;;;1.20;;
789;SDS011;378;48.844;9.156;2022-07-11T13:45:57;5.20;;;1.40;;
789;SDS011;378;48.844;9.156;2022-07-11T13:48:25;2.53;;;1.63;;
789;SDS011;378;48.844;9.156;2022-07-11T13:50:52;2.55;;;1.40;;
789;SDS011;378;48.844;9.156;2022-07-11T13:53:19;2.38;;;1.35;;
789;SDS011;378;48.844;9.156;2022-07-11T13:55:47;2.80;;;1.50;;
789;SDS011;378;48.844;9.156;2022-07-11T13:58:15;3.70;;;1.45;;
789;SDS011;378;48.844;9.156;2022-07-11T14:00:50;2.60;;;1.50;;
789;SDS011;378;48.844;9.156;2022-07-11T14:03:18;4.50;;;1.50;;
789;SDS011;378;48.844;9.156;2022-07-11T14:05:45;6.72;;;1.30;;
789;SDS011;378;48.844;9.156;2022-07-11T14:08:13;1.60;;;1.08;;
789;SDS011;378;48.844;9.156;2022-07-11T14:10:40;2.40;;;1.10;;
789;SDS011;378;48.844;9.156;2022-07-11T14:13:07;2.15;;;1.15;;
789;SDS011;378;48.844;9.156;2022-07-11T14:15:36;3.00;;;1.48;;
789;SDS011;378;48.844;9.156;2022-07-11T14:18:04;2.92;;;1.63;;
789;SDS011;378;48.844;9.156;2022-07-11T14:20:31;2.70;;;1.40;;
789;SDS011;378;48.844;9.156;2022-07-11T14:22:58;3.17;;;1.50;;
789;SDS011;378;48.844;9.156;2022-07-11T14:25:25;3.17;;;1.23;;
789;SDS011;378;48.844;9.156;2022-07-11T14:27:52;3.17;;;1.65;;
789;SDS011;378;48.844;9.156;2022-07-11T14:30:19;4.45;;;1.85;;
789;SDS011;378;48.844;9.156;2022-07-11T14:32:48;3.60;;;1.50;;
789;SDS011;378;48.844;9.156;2022-07-11T14:35:16;3.42;;;1.48;;
789;SDS011;378;48.844;9.156;2022-07-11T14:37:43;3.53;;;1.65;;
789;SDS011;378;48.844;9.156;2022-07-11T14:40:10;3.17;;;1.90;;
789;SDS011;378;48.844;9.156;2022-07-11T14:42:38;3.28;;;1.60;;
789;SDS011;378;48.844;9.156;2022-07-11T14:45:05;2.22;;;1.60;;
789;SDS011;378;48.844;9.156;2022-07-11T14:47:33;3.35;;;1.70;;
789;SDS011;378;48.844;9.156;2022-07-11T14:50:02;3.03;;;1.70;;
789;SDS011;378;48.844;9.156;2022-07-11T14:52:31;3.38;;;1.50;;
789;SDS011;378;48.844;9.156;2022-07-11T14:54:58;2.08;;;1.48;;
789;SDS011;378;48.844;9.156;2022-07-11T14:57:25;1.75;;;1.50;;
789;SDS011;378;48.844;9.156;2022-07-11T14:59:53;4.25;;;1.55;;
789;SDS011;378;48.844;9.156;2022-07-11T15:02:20;4.20;;;1.30;;
789;SDS011;378;48.844;9.156;2022-07-11T15:05:03;4.78;;;1.27;;
789;SDS011;378;48.844;9.156;2022-07-11T15:07:30;2.17;;;1.25;;
789;SDS011;378;48.844;9.156;2022-07-11T15:10:15;5.30;;;1.20;;
789;SDS011;378;48.844;9.156;2022-07-11T15:13:00;4.43;;;1.50;;
789;SDS011;378;48.844;9.156;2022-07-11T15:15:27;2.10;;;1.20;;
789;SDS011;378;48.844;9.156;2022-07-11T15:17:54;2.08;;;1.13;;
789;SDS011;378;48.844;9.156;2022-07-11T15:20:23;4.75;;;1.30;;
789;SDS011;378;48.844;9.156;2022-07-11T15:22:50;2.70;;;1.20;;
789;SDS011;378;48.844;9.156;2022-07-11T15:25:18;2.83;;;1.38;;
789;SDS011;378;48.844;9.156;2022-07-11T15:27:46;2.97;;;1.30;;
789;SDS011;378;48.844;9.156;2022-07-11T15:30:13;4.30;;;1.58;;
789;SDS011;378;48.844;9.156;2022-07-11T15:32:42;1.58;;;1.20;;
789;SDS011;378;48.844;9.156;2022-07-11T15:35:09;1.92;;;1.13;;
789;SDS011;378;48.844;9.156;2022-07-11T15:37:38;2.33;;;1.30;;
789;SDS011;378;48.844;9.156;2022-07-11T15:40:08;2.35;;;1.10;;
789;SDS011;378;48.844;9.156;2022-07-11T15:42:35;7.20;;;1.30;;
789;SDS011;378;48.844;9.156;2022-07-11T15:45:17;5.95;;;1.30;;
789;SDS011;378;48.844;9.156;2022-07-11T15:47:54;4.35;;;1.30;;
789;SDS011;378;48.844;9.156;2022-07-11T15:50:24;2.00;;;1.30;;
789;SDS011;378;48.844;9.156;2022-07-11T15:53:09;4.22;;;1.05;;
789;SDS011;378;48.844;9.156;2022-07-11T15:55:44;3.40;;;1.27;;
789;SDS011;378;48.844;9.156;2022-07-11T15:58:14;4.78;;;1.65;;
789;SDS011;378;48.844;9.156;2022-07-11T16:00:45;3.10;;;1.20;;
789;SDS011;378;48.844;9.156;2022-07-11T16:03:17;1.38;;;1.00;;
789;SDS011;378;48.844;9.156;2022-07-11T16:05:44;3.40;;;1.00;;
789;SDS011;378;48.844;9.156;2022-07-11T16:08:14;2.05;;;1.30;;
789;SDS011;378;48.844;9.156;2022-07-11T16:10:44;1.83;;;1.10;;
789;SDS011;378;48.844;9.156;2022-07-11T16:13:15;3.75;;;1.30;;